Time;durP1;ratioP1;P1;durP2;ratioP2;P2;SDS_P1;SDS_P2;PMS_P1;PMS_P2;Temp;Humidity;BMP_temperature;BMP_pressure;BME280_temperature;BME280_humidity;BME280_pressure;Samples;Min_cycle;Max_cycle;Signal;HPM_P1;HPM_P2
2023/06/13 00:00:59;;;;;;;;;;;;;;;23.30;nan;101779.66;4962783;28;19922;-79
2023/06/13 00:03:26;;;;;;;;;;;;;;;23.25;nan;101770.75;4956827;28;19939;-78
2023/06/13 00:05:54;;;;;;;;;;;;;;;23.17;nan;101773.13;4958335;28;20345;-79
2023/06/13 00:08:20;;;;;;;;;;;;;;;23.12;nan;101777.88;4962168;28;19941;-78
2023/06/13 00:10:46;;;;;;;;;;;;;;;23.04;nan;101771.22;4960194;28;19933;-78
2023/06/13 00:13:13;;;;;;;;;;;;;;;22.98;nan;101772.47;4961845;28;19918;-78
2023/06/13 00:15:38;;;;;;;;;;;;;;;22.94;nan;101768.69;4962101;28;20099;-78
2023/06/13 00:18:04;;;;;;;;;;;;;;;22.89;nan;101768.81;4963389;28;19972;-78
2023/06/13 00:20:30;;;;;;;;;;;;;;;22.83;nan;101772.78;4962301;28;20397;-78
2023/06/13 00:22:57;;;;;;;;;;;;;;;22.76;nan;101767.69;4964763;28;19926;-78
2023/06/13 00:25:22;;;;;;;;;;;;;;;22.70;nan;101771.66;4961482;28;19926;-78
2023/06/13 00:27:48;;;;;;;;;;;;;;;22.65;nan;101766.28;4964584;28;19925;-79
2023/06/13 00:30:13;;;;;;;;;;;;;;;22.60;nan;101764.44;4957696;28;19918;-79
2023/06/13 00:32:38;;;;;;;;;;;;;;;22.55;nan;101761.84;4962804;28;20417;-78
2023/06/13 00:35:04;;;;;;;;;;;;;;;22.51;nan;101758.09;4960759;28;19997;-78
2023/06/13 00:37:34;;;;;;;;;;;;;;;22.48;nan;101761.44;4965074;28;20326;-78
2023/06/13 00:39:59;;;;;;;;;;;;;;;22.43;nan;101760.72;4963801;28;19932;-79
2023/06/13 00:42:24;;;;;;;;;;;;;;;22.36;nan;101763.84;4959294;28;19937;-78
2023/06/13 00:44:50;;;;;;;;;;;;;;;22.28;nan;101759.94;4960943;28;19926;-79
2023/06/13 00:47:15;;;;;;;;;;;;;;;22.22;nan;101752.13;4961180;28;19929;-78
2023/06/13 00:49:41;;;;;;;;;;;;;;;22.18;nan;101759.28;4960480;28;20375;-78
2023/06/13 00:52:08;;;;;;;;;;;;;;;22.13;nan;101760.22;4962456;28;19922;-78
2023/06/13 00:54:36;;;;;;;;;;;;;;;22.08;nan;101751.28;4959361;28;20290;-78
2023/06/13 00:57:02;;;;;;;;;;;;;;;22.01;nan;101757.13;4961168;28;19917;-78
2023/06/13 00:59:28;;;;;;;;;;;;;;;21.97;nan;101754.19;4958724;28;20291;-78
2023/06/13 01:01:53;;;;;;;;;;;;;;;21.94;nan;101745.78;4959692;28;19918;-78
2023/06/13 01:04:19;;;;;;;;;;;;;;;21.90;nan;101748.31;4961823;28;19929;-78
2023/06/13 01:06:45;;;;;;;;;;;;;;;21.85;nan;101745.66;4961136;28;19925;-78
2023/06/13 01:09:11;;;;;;;;;;;;;;;21.81;nan;101747.38;4958805;28;20016;-78
2023/06/13 01:11:45;;;;;;;;;;;;;;;21.79;nan;101746.06;4962104;28;20024;-78
2023/06/13 01:14:31;;;;;;;;;;;;;;;21.73;nan;101744.53;4961763;28;19969;-78
2023/06/13 01:17:03;;;;;;;;;;;;;;;21.67;nan;101746.50;4950784;28;20403;-78
2023/06/13 01:19:37;;;;;;;;;;;;;;;21.64;nan;101747.13;4960982;28;19969;-78
2023/06/13 01:22:04;;;;;;;;;;;;;;;21.60;nan;101748.84;4959645;28;20066;-79
2023/06/13 01:24:45;;;;;;;;;;;;;;;21.58;nan;101742.88;4961032;28;19937;-78
2023/06/13 01:27:12;;;;;;;;;;;;;;;21.54;nan;101750.00;4962489;28;20044;-78
2023/06/13 01:29:39;;;;;;;;;;;;;;;21.51;nan;101742.41;4954167;28;19954;-79
2023/06/13 01:32:06;;;;;;;;;;;;;;;21.48;nan;101745.75;4961867;28;20345;-78
2023/06/13 01:34:32;;;;;;;;;;;;;;;21.45;nan;101738.16;4963366;28;20317;-78
2023/06/13 01:36:57;;;;;;;;;;;;;;;21.42;nan;101745.84;4960427;28;19914;-78
2023/06/13 01:39:22;;;;;;;;;;;;;;;21.40;nan;101747.25;4962139;28;20554;-78
2023/06/13 01:41:48;;;;;;;;;;;;;;;21.35;nan;101753.56;4962817;28;19981;-78
2023/06/13 01:44:16;;;;;;;;;;;;;;;21.29;nan;101746.56;4958998;28;19956;-78
2023/06/13 01:46:45;;;;;;;;;;;;;;;21.24;nan;101746.66;4966011;28;19944;-79
2023/06/13 01:49:40;;;;;;;;;;;;;;;21.19;nan;101740.44;4960838;28;20204;-78
2023/06/13 01:52:06;;;;;;;;;;;;;;;21.15;nan;101751.09;4956716;28;19923;-78
2023/06/13 01:54:35;;;;;;;;;;;;;;;21.10;nan;101743.81;4963214;28;19922;-78
2023/06/13 01:57:02;;;;;;;;;;;;;;;21.08;nan;101737.06;4958933;28;20398;-79
2023/06/13 01:59:29;;;;;;;;;;;;;;;21.02;nan;101736.31;4956651;28;19953;-78
2023/06/13 02:01:56;;;;;;;;;;;;;;;20.98;nan;101735.28;4959265;28;19967;-78
2023/06/13 02:04:21;;;;;;;;;;;;;;;20.96;nan;101747.56;4961114;28;19995;-78
2023/06/13 02:06:46;;;;;;;;;;;;;;;20.92;nan;101743.81;4960675;28;20349;-78
2023/06/13 02:09:11;;;;;;;;;;;;;;;20.89;nan;101738.97;4956145;28;19922;-79
2023/06/13 02:11:37;;;;;;;;;;;;;;;20.86;nan;101734.91;4956632;28;19953;-79
2023/06/13 02:14:02;;;;;;;;;;;;;;;20.86;nan;101736.81;4963650;28;20213;-78
2023/06/13 02:16:30;;;;;;;;;;;;;;;20.81;nan;101741.22;4959683;28;19976;-78
2023/06/13 02:18:58;;;;;;;;;;;;;;;20.76;nan;101738.56;4958748;28;19968;-79
2023/06/13 02:21:24;;;;;;;;;;;;;;;20.70;nan;101733.50;4958556;28;20370;-78
2023/06/13 02:23:49;;;;;;;;;;;;;;;20.68;nan;101736.50;4957111;28;19924;-78
2023/06/13 02:26:16;;;;;;;;;;;;;;;20.66;nan;101732.47;4962741;28;20194;-78
2023/06/13 02:28:42;;;;;;;;;;;;;;;20.62;nan;101732.22;4957134;28;20461;-78
2023/06/13 02:31:08;;;;;;;;;;;;;;;20.59;nan;101732.00;4953138;28;19918;-78
2023/06/13 02:33:33;;;;;;;;;;;;;;;20.55;nan;101731.75;4964143;28;20122;-78
2023/06/13 02:35:59;;;;;;;;;;;;;;;20.54;nan;101737.50;4954880;28;20349;-78
2023/06/13 02:38:24;;;;;;;;;;;;;;;20.49;nan;101741.09;4959759;28;19945;-78
2023/06/13 02:40:49;;;;;;;;;;;;;;;20.47;nan;101754.19;4959383;28;20184;-78
2023/06/13 02:43:15;;;;;;;;;;;;;;;20.44;nan;101752.03;4961791;28;19926;-78
2023/06/13 02:45:40;;;;;;;;;;;;;;;20.42;nan;101751.50;4957149;28;20409;-78
2023/06/13 02:48:05;;;;;;;;;;;;;;;20.41;nan;101752.63;4960620;28;19925;-78
2023/06/13 02:50:31;;;;;;;;;;;;;;;20.37;nan;101749.63;4957975;28;19937;-78
2023/06/13 02:52:56;;;;;;;;;;;;;;;20.38;nan;101745.00;4956203;28;19933;-78
2023/06/13 02:55:21;;;;;;;;;;;;;;;20.39;nan;101747.44;4961418;28;20112;-78
2023/06/13 02:57:47;;;;;;;;;;;;;;;20.40;nan;101746.34;4957302;28;20584;-78
2023/06/13 03:00:13;;;;;;;;;;;;;;;20.40;nan;101749.06;4955734;28;19921;-78
2023/06/13 03:02:38;;;;;;;;;;;;;;;20.40;nan;101749.06;4959394;28;19925;-79
2023/06/13 03:05:11;;;;;;;;;;;;;;;20.42;nan;101743.34;4961139;28;19926;-78
2023/06/13 03:07:36;;;;;;;;;;;;;;;20.45;nan;101745.50;4958908;28;20147;-78
2023/06/13 03:10:06;;;;;;;;;;;;;;;20.46;nan;101749.81;4957100;28;20021;-78
2023/06/13 03:12:31;;;;;;;;;;;;;;;20.51;nan;101739.72;4957156;28;19926;-78
2023/06/13 03:14:56;;;;;;;;;;;;;;;20.54;nan;101738.31;4956813;28;19933;-78
2023/06/13 03:17:22;;;;;;;;;;;;;;;20.60;nan;101742.59;4959117;28;20015;-78
2023/06/13 03:19:48;;;;;;;;;;;;;;;20.61;nan;101741.47;4959797;28;19940;-78
2023/06/13 03:22:14;;;;;;;;;;;;;;;20.67;nan;101734.09;4956094;28;20094;-78
2023/06/13 03:24:44;;;;;;;;;;;;;;;20.65;nan;101737.09;4957439;28;20453;-79
2023/06/13 03:27:12;;;;;;;;;;;;;;;20.67;nan;101734.88;4957200;28;20139;-78
2023/06/13 03:29:37;;;;;;;;;;;;;;;20.73;nan;101741.88;4955389;28;19922;-78
2023/06/13 03:32:03;;;;;;;;;;;;;;;20.78;nan;101733.63;4958453;28;19996;-78
2023/06/13 03:34:31;;;;;;;;;;;;;;;20.81;nan;101730.31;4966787;28;20452;-78
2023/06/13 03:36:56;;;;;;;;;;;;;;;20.79;nan;101732.53;4955684;28;20874;-78
2023/06/13 03:39:21;;;;;;;;;;;;;;;20.78;nan;101735.56;4958155;28;20188;-78
2023/06/13 03:41:47;;;;;;;;;;;;;;;20.76;nan;101732.31;4957777;28;20374;-78
2023/06/13 03:44:12;;;;;;;;;;;;;;;20.73;nan;101738.34;4957315;28;19945;-78
2023/06/13 03:46:37;;;;;;;;;;;;;;;20.72;nan;101740.25;4963887;28;20342;-78
2023/06/13 03:49:03;;;;;;;;;;;;;;;20.75;nan;101742.41;4962295;28;19941;-78
2023/06/13 03:51:28;;;;;;;;;;;;;;;20.77;nan;101742.91;4962606;28;19925;-78
2023/06/13 03:53:53;;;;;;;;;;;;;;;20.81;nan;101751.31;4976065;28;19919;-78
2023/06/13 03:56:19;;;;;;;;;;;;;;;20.87;nan;101750.16;4966338;28;19918;-78
2023/06/13 03:58:44;;;;;;;;;;;;;;;20.93;nan;101754.41;4964750;28;19988;-78
2023/06/13 04:01:11;;;;;;;;;;;;;;;20.97;nan;101741.81;4959962;28;20295;-78
2023/06/13 04:03:39;;;;;;;;;;;;;;;21.02;nan;101739.06;4965473;28;20068;-78
2023/06/13 04:06:05;;;;;;;;;;;;;;;21.05;nan;101741.19;4964151;28;19933;-78
2023/06/13 04:08:30;;;;;;;;;;;;;;;21.05;nan;101743.09;4961365;28;19922;-78
2023/06/13 04:10:56;;;;;;;;;;;;;;;21.06;nan;101748.25;4963343;28;20012;-78
2023/06/13 04:13:21;;;;;;;;;;;;;;;21.14;nan;101738.59;4960798;28;19918;-78
2023/06/13 04:15:47;;;;;;;;;;;;;;;21.16;nan;101743.75;4961730;28;19961;-78
2023/06/13 04:18:17;;;;;;;;;;;;;;;21.16;nan;101763.63;4961672;28;20012;-79
2023/06/13 04:20:43;;;;;;;;;;;;;;;21.21;nan;101758.13;4963375;28;19926;-78
2023/06/13 04:23:08;;;;;;;;;;;;;;;21.28;nan;101746.88;4959059;28;19925;-79
2023/06/13 04:25:35;;;;;;;;;;;;;;;21.34;nan;101732.84;4960773;28;19961;-78
2023/06/13 04:28:01;;;;;;;;;;;;;;;21.35;nan;101742.66;4962481;28;19937;-78
2023/06/13 04:30:28;;;;;;;;;;;;;;;21.41;nan;101737.94;4956923;28;21327;-78
2023/06/13 04:32:56;;;;;;;;;;;;;;;21.48;nan;101737.56;4957814;28;20031;-78
2023/06/13 04:35:22;;;;;;;;;;;;;;;21.57;nan;101741.25;4957925;28;19926;-78
2023/06/13 04:37:48;;;;;;;;;;;;;;;21.70;nan;101735.81;4976156;28;19922;-78
2023/06/13 04:40:14;;;;;;;;;;;;;;;21.81;nan;101741.91;4961118;28;19950;-78
2023/06/13 04:42:39;;;;;;;;;;;;;;;21.91;nan;101736.28;4963833;28;20349;-78
2023/06/13 04:45:05;;;;;;;;;;;;;;;22.01;nan;101733.38;4965241;28;19926;-78
2023/06/13 04:47:30;;;;;;;;;;;;;;;22.10;nan;101735.44;4959954;28;20023;-78
2023/06/13 04:49:59;;;;;;;;;;;;;;;22.19;nan;101737.16;4959853;28;20125;-78
2023/06/13 04:52:32;;;;;;;;;;;;;;;22.29;nan;101749.81;4963184;28;20401;-79
2023/06/13 04:54:58;;;;;;;;;;;;;;;22.43;nan;101742.41;4962500;28;19922;-79
2023/06/13 04:57:23;;;;;;;;;;;;;;;22.57;nan;101736.94;4958048;28;19926;-79
2023/06/13 04:59:48;;;;;;;;;;;;;;;22.68;nan;101743.00;4958235;28;20350;-78
2023/06/13 05:02:16;;;;;;;;;;;;;;;22.77;nan;101735.69;4958408;28;19928;-79
2023/06/13 05:04:42;;;;;;;;;;;;;;;22.84;nan;101739.69;4961224;28;20385;-79
2023/06/13 05:07:07;;;;;;;;;;;;;;;22.88;nan;101745.34;4961139;28;19918;-79
2023/06/13 05:09:33;;;;;;;;;;;;;;;22.90;nan;101748.56;4961527;28;20031;-79
2023/06/13 05:11:58;;;;;;;;;;;;;;;22.96;nan;101743.78;4961497;28;19985;-79
2023/06/13 05:14:23;;;;;;;;;;;;;;;23.00;nan;101740.16;4960259;28;20050;-79
2023/06/13 05:16:49;;;;;;;;;;;;;;;23.10;nan;101747.31;4962053;28;20369;-79
2023/06/13 05:19:15;;;;;;;;;;;;;;;23.23;nan;101742.91;4963082;28;19933;-79
2023/06/13 05:21:40;;;;;;;;;;;;;;;23.40;nan;101745.78;4958788;28;20394;-79
2023/06/13 05:24:09;;;;;;;;;;;;;;;23.56;nan;101746.22;4962315;28;20044;-79
2023/06/13 05:26:34;;;;;;;;;;;;;;;23.67;nan;101742.94;4963210;28;19922;-79
2023/06/13 05:29:03;;;;;;;;;;;;;;;23.75;nan;101752.34;4962592;28;20360;-79
2023/06/13 05:31:28;;;;;;;;;;;;;;;23.79;nan;101751.41;4955468;28;20500;-79
2023/06/13 05:33:53;;;;;;;;;;;;;;;23.81;nan;101756.56;4960180;28;19926;-79
2023/06/13 05:36:19;;;;;;;;;;;;;;;23.85;nan;101760.28;4959355;28;19925;-79
2023/06/13 05:38:45;;;;;;;;;;;;;;;23.93;nan;101764.19;4961950;28;19929;-79
2023/06/13 05:41:10;;;;;;;;;;;;;;;24.06;nan;101766.06;4959788;28;19924;-79
2023/06/13 05:43:35;;;;;;;;;;;;;;;24.18;nan;101763.50;4958414;28;19930;-79
2023/06/13 05:46:01;;;;;;;;;;;;;;;24.28;nan;101762.44;4959450;28;20426;-79
2023/06/13 05:48:29;;;;;;;;;;;;;;;24.36;nan;101751.53;4961552;28;20294;-79
2023/06/13 05:50:54;;;;;;;;;;;;;;;24.40;nan;101766.19;4972533;28;20001;-79
2023/06/13 05:53:20;;;;;;;;;;;;;;;24.47;nan;101764.97;4961137;28;19958;-79
2023/06/13 05:55:45;;;;;;;;;;;;;;;24.51;nan;101763.19;4958256;28;19926;-79
2023/06/13 05:58:11;;;;;;;;;;;;;;;24.54;nan;101757.06;4955967;28;20186;-79
2023/06/13 06:00:36;;;;;;;;;;;;;;;24.57;nan;101759.16;4953775;28;19918;-79
2023/06/13 06:03:01;;;;;;;;;;;;;;;24.58;nan;101763.53;4957416;28;20092;-79
2023/06/13 06:05:29;;;;;;;;;;;;;;;24.63;nan;101766.13;4962880;28;19929;-79
2023/06/13 06:07:54;;;;;;;;;;;;;;;24.67;nan;101764.38;4960560;28;19938;-79
2023/06/13 06:10:19;;;;;;;;;;;;;;;24.71;nan;101763.41;4958895;28;19925;-79
2023/06/13 06:12:45;;;;;;;;;;;;;;;24.77;nan;101771.47;4962796;28;19922;-79
2023/06/13 06:15:11;;;;;;;;;;;;;;;24.82;nan;101772.16;4959895;28;20066;-79
2023/06/13 06:17:36;;;;;;;;;;;;;;;24.87;nan;101768.44;4956103;28;20016;-79
2023/06/13 06:20:03;;;;;;;;;;;;;;;24.92;nan;101766.34;4958049;28;20021;-79
2023/06/13 06:22:29;;;;;;;;;;;;;;;24.98;nan;101761.53;4959544;28;19933;-79
2023/06/13 06:24:54;;;;;;;;;;;;;;;25.07;nan;101767.84;4959951;28;19922;-79
2023/06/13 06:27:20;;;;;;;;;;;;;;;25.14;nan;101772.88;4958240;28;19918;-79
2023/06/13 06:29:45;;;;;;;;;;;;;;;25.19;nan;101776.25;4961009;28;19949;-79
2023/06/13 06:32:10;;;;;;;;;;;;;;;25.29;nan;101769.63;4956052;28;19918;-79
2023/06/13 06:34:36;;;;;;;;;;;;;;;25.34;nan;101772.22;4959500;28;19922;-79
2023/06/13 06:37:05;;;;;;;;;;;;;;;25.42;nan;101776.09;4959129;28;19919;-79
2023/06/13 06:39:31;;;;;;;;;;;;;;;25.54;nan;101771.56;4957924;28;20318;-79
2023/06/13 06:41:56;;;;;;;;;;;;;;;25.64;nan;101772.34;4955706;28;19926;-79
2023/06/13 06:44:21;;;;;;;;;;;;;;;25.74;nan;101780.28;4958796;28;19968;-79
2023/06/13 06:46:46;;;;;;;;;;;;;;;25.80;nan;101773.47;4962501;28;20037;-80
2023/06/13 06:49:12;;;;;;;;;;;;;;;25.85;nan;101771.38;4955846;28;20437;-79
2023/06/13 06:51:37;;;;;;;;;;;;;;;25.96;nan;101766.34;4958447;28;19925;-79
2023/06/13 06:54:02;;;;;;;;;;;;;;;26.08;nan;101771.16;4956436;28;20012;-79
2023/06/13 06:56:28;;;;;;;;;;;;;;;26.15;nan;101777.75;4960632;28;20402;-79
2023/06/13 06:58:53;;;;;;;;;;;;;;;26.24;nan;101776.91;4961295;28;20009;-79
2023/06/13 07:01:18;;;;;;;;;;;;;;;26.34;nan;101776.53;4958396;28;20370;-79
2023/06/13 07:03:44;;;;;;;;;;;;;;;26.47;nan;101767.31;4953751;28;19960;-79
2023/06/13 07:06:11;;;;;;;;;;;;;;;26.63;nan;101787.59;4958413;28;20009;-79
2023/06/13 07:08:36;;;;;;;;;;;;;;;26.83;nan;101775.00;4960014;28;20432;-79
2023/06/13 07:11:02;;;;;;;;;;;;;;;27.04;nan;101773.13;4960285;28;20001;-80
2023/06/13 07:13:27;;;;;;;;;;;;;;;27.25;nan;101777.81;4962189;28;19961;-80
2023/06/13 07:15:52;;;;;;;;;;;;;;;27.39;nan;101776.38;4957462;28;19919;-80
2023/06/13 07:18:18;;;;;;;;;;;;;;;27.50;nan;101774.03;4960153;28;19954;-79
2023/06/13 07:20:45;;;;;;;;;;;;;;;27.63;nan;101772.16;4958621;28;19926;-80
2023/06/13 07:23:11;;;;;;;;;;;;;;;27.76;nan;101776.56;4958920;28;20305;-80
2023/06/13 07:25:36;;;;;;;;;;;;;;;27.88;nan;101767.53;4961663;28;21037;-80
2023/06/13 07:28:02;;;;;;;;;;;;;;;28.00;nan;101764.78;4964933;28;19922;-80
2023/06/13 07:30:27;;;;;;;;;;;;;;;28.12;nan;101766.75;4963024;28;20005;-79
2023/06/13 07:32:52;;;;;;;;;;;;;;;28.22;nan;101760.81;4960083;28;20017;-80
2023/06/13 07:35:23;;;;;;;;;;;;;;;28.29;nan;101767.38;4960296;28;20278;-81
2023/06/13 07:37:49;;;;;;;;;;;;;;;28.34;nan;101763.59;4964861;28;19918;-79
2023/06/13 07:40:15;;;;;;;;;;;;;;;28.39;nan;101757.88;4958954;28;19925;-81
2023/06/13 07:42:40;;;;;;;;;;;;;;;28.43;nan;101756.03;4957106;28;20001;-80
2023/06/13 07:45:06;;;;;;;;;;;;;;;28.42;nan;101764.63;4959249;28;20441;-80
2023/06/13 07:47:31;;;;;;;;;;;;;;;28.38;nan;101756.25;4964439;28;19918;-80
2023/06/13 07:49:56;;;;;;;;;;;;;;;28.43;nan;101761.53;4962357;28;19926;-80
2023/06/13 07:52:22;;;;;;;;;;;;;;;28.50;nan;101756.22;4960651;28;19982;-79
2023/06/13 07:54:47;;;;;;;;;;;;;;;28.65;nan;101753.94;4963972;28;20563;-80
2023/06/13 07:57:12;;;;;;;;;;;;;;;28.81;nan;101758.38;4960047;28;19922;-80
2023/06/13 07:59:38;;;;;;;;;;;;;;;28.97;nan;101764.03;4960132;28;19918;-80
2023/06/13 08:02:03;;;;;;;;;;;;;;;29.12;nan;101759.72;4956559;28;19918;-79
2023/06/13 08:04:29;;;;;;;;;;;;;;;29.28;nan;101757.03;4962099;28;19933;-80
2023/06/13 08:06:54;;;;;;;;;;;;;;;29.40;nan;101751.44;4964200;28;20306;-80
2023/06/13 08:09:22;;;;;;;;;;;;;;;29.55;nan;101759.00;4963977;28;20020;-79
2023/06/13 08:11:48;;;;;;;;;;;;;;;29.66;nan;101757.34;4961587;28;19929;-80
2023/06/13 08:14:13;;;;;;;;;;;;;;;29.77;nan;101752.88;4960595;28;19922;-81
2023/06/13 08:16:38;;;;;;;;;;;;;;;29.87;nan;101750.78;4962908;28;19926;-80
2023/06/13 08:19:04;;;;;;;;;;;;;;;29.93;nan;101743.81;4960381;28;19918;-80
2023/06/13 08:21:30;;;;;;;;;;;;;;;30.04;nan;101750.47;4962297;28;19929;-80
2023/06/13 08:23:56;;;;;;;;;;;;;;;30.12;nan;101748.66;4961799;28;20465;-81
2023/06/13 08:26:22;;;;;;;;;;;;;;;30.20;nan;101751.25;4961655;28;19977;-81
2023/06/13 08:28:48;;;;;;;;;;;;;;;30.27;nan;101745.88;4962365;28;19941;-81
2023/06/13 08:31:13;;;;;;;;;;;;;;;30.36;nan;101741.00;4959596;28;19926;-80
2023/06/13 08:33:39;;;;;;;;;;;;;;;30.50;nan;101748.00;4957413;28;20404;-81
2023/06/13 08:36:05;;;;;;;;;;;;;;;30.59;nan;101754.94;4963184;28;20414;-79
2023/06/13 08:38:30;;;;;;;;;;;;;;;30.69;nan;101742.53;4963583;28;19958;-80
2023/06/13 08:40:55;;;;;;;;;;;;;;;30.77;nan;101749.03;4960783;28;19922;-79
2023/06/13 08:43:20;;;;;;;;;;;;;;;30.81;nan;101749.91;4962302;28;20295;-80
2023/06/13 08:45:46;;;;;;;;;;;;;;;30.89;nan;101749.72;4963565;28;19937;-81
2023/06/13 08:48:11;;;;;;;;;;;;;;;30.99;nan;101742.81;4960676;28;19926;-80
2023/06/13 08:50:37;;;;;;;;;;;;;;;31.09;nan;101738.66;4959934;28;19922;-80
2023/06/13 08:53:03;;;;;;;;;;;;;;;31.20;nan;101740.50;4961774;28;19946;-81
2023/06/13 08:55:29;;;;;;;;;;;;;;;31.33;nan;101732.03;4961056;28;20349;-81
2023/06/13 08:57:54;;;;;;;;;;;;;;;31.38;nan;101738.06;4957891;28;19918;-81
2023/06/13 09:00:21;;;;;;;;;;;;;;;31.36;nan;101729.34;4961257;28;20425;-80
2023/06/13 09:02:46;;;;;;;;;;;;;;;31.34;nan;101739.97;4959663;28;19933;-80
2023/06/13 09:05:15;;;;;;;;;;;;;;;31.39;nan;101736.91;4961253;28;20367;-80
2023/06/13 09:07:45;;;;;;;;;;;;;;;31.51;nan;101739.53;4961997;28;19925;-81
2023/06/13 09:10:11;;;;;;;;;;;;;;;31.71;nan;101740.28;4957986;28;19934;-80
2023/06/13 09:12:40;;;;;;;;;;;;;;;31.87;nan;101723.56;4960417;28;19927;-81
2023/06/13 09:15:05;;;;;;;;;;;;;;;31.95;nan;101736.38;4963319;28;19971;-80
2023/06/13 09:17:31;;;;;;;;;;;;;;;32.06;nan;101734.59;4960249;28;19929;-81
2023/06/13 09:19:56;;;;;;;;;;;;;;;32.20;nan;101730.44;4959701;28;19934;-81
2023/06/13 09:22:22;;;;;;;;;;;;;;;32.33;nan;101729.91;4961804;28;19918;-80
2023/06/13 09:24:48;;;;;;;;;;;;;;;32.31;nan;101748.88;4961541;28;19921;-81
2023/06/13 09:27:14;;;;;;;;;;;;;;;32.28;nan;101748.81;4959273;28;20420;-80
2023/06/13 09:29:39;;;;;;;;;;;;;;;32.36;nan;101745.78;4961327;28;19918;-80
2023/06/13 09:32:05;;;;;;;;;;;;;;;32.40;nan;101748.63;4957058;28;20159;-79
2023/06/13 09:34:31;;;;;;;;;;;;;;;32.44;nan;101744.72;4963807;28;20405;-79
2023/06/13 09:36:57;;;;;;;;;;;;;;;32.59;nan;101737.41;4960485;28;19926;-80
2023/06/13 09:39:24;;;;;;;;;;;;;;;32.75;nan;101740.81;4962225;28;19918;-80
2023/06/13 09:41:53;;;;;;;;;;;;;;;32.92;nan;101733.13;4960691;28;20367;-80
2023/06/13 09:44:18;;;;;;;;;;;;;;;33.07;nan;101721.03;4959316;28;20530;-81
2023/06/13 09:46:43;;;;;;;;;;;;;;;33.07;nan;101737.69;4958526;28;19930;-81
2023/06/13 09:49:09;;;;;;;;;;;;;;;33.06;nan;101738.84;4960494;28;19933;-80
2023/06/13 09:51:35;;;;;;;;;;;;;;;33.10;nan;101717.47;4957182;28;19918;-80
2023/06/13 09:54:00;;;;;;;;;;;;;;;33.18;nan;101719.16;4959552;28;20094;-80
2023/06/13 09:56:25;;;;;;;;;;;;;;;33.26;nan;101725.59;4962353;28;19933;-80
2023/06/13 09:58:51;;;;;;;;;;;;;;;33.23;nan;101721.59;4956989;28;19922;-81
2023/06/13 10:01:17;;;;;;;;;;;;;;;33.18;nan;101719.16;4961362;28;20015;-81
2023/06/13 10:03:43;;;;;;;;;;;;;;;33.19;nan;101714.41;4960999;28;19930;-82
2023/06/13 10:06:09;;;;;;;;;;;;;;;33.22;nan;101714.47;4961609;28;19969;-81
2023/06/13 10:08:34;;;;;;;;;;;;;;;33.34;nan;101716.97;4962109;28;19954;-80
2023/06/13 10:11:02;;;;;;;;;;;;;;;33.51;nan;101714.78;4958019;28;19994;-81
2023/06/13 10:13:29;;;;;;;;;;;;;;;33.59;nan;101710.91;4960600;28;19944;-81
2023/06/13 10:15:57;;;;;;;;;;;;;;;33.60;nan;101713.28;4963363;28;19924;-81
2023/06/13 10:18:25;;;;;;;;;;;;;;;33.53;nan;101712.41;4957200;28;20017;-81
2023/06/13 10:20:51;;;;;;;;;;;;;;;33.58;nan;101709.31;4963105;28;20356;-80
2023/06/13 10:23:19;;;;;;;;;;;;;;;33.71;nan;101710.59;4960534;28;19922;-79
2023/06/13 10:25:48;;;;;;;;;;;;;;;33.83;nan;101710.31;4955571;28;20469;-80
2023/06/13 10:28:30;;;;;;;;;;;;;;;33.90;nan;101727.06;4959396;28;19921;-80
2023/06/13 10:30:58;;;;;;;;;;;;;;;33.86;nan;101714.34;4956727;28;19930;-81
2023/06/13 10:33:37;;;;;;;;;;;;;;;33.85;nan;101716.31;4954328;28;19922;-80
2023/06/13 10:36:20;;;;;;;;;;;;;;;33.74;nan;101715.38;4955661;28;19922;-81
2023/06/13 10:39:09;;;;;;;;;;;;;;;33.57;nan;101716.00;4958478;28;20351;-80
2023/06/13 10:41:41;;;;;;;;;;;;;;;33.45;nan;101716.31;4956594;28;19962;-81
2023/06/13 10:44:13;;;;;;;;;;;;;;;33.53;nan;101713.19;4951943;28;20333;-80
2023/06/13 10:46:39;;;;;;;;;;;;;;;33.57;nan;101707.69;4954176;28;19926;-81
2023/06/13 10:49:04;;;;;;;;;;;;;;;33.56;nan;101700.53;4955660;28;19952;-81
2023/06/13 10:51:30;;;;;;;;;;;;;;;33.64;nan;101699.44;4957655;28;20309;-81
2023/06/13 10:54:01;;;;;;;;;;;;;;;33.71;nan;101707.00;4960617;28;19950;-81
2023/06/13 10:56:29;;;;;;;;;;;;;;;33.79;nan;101690.03;4958743;28;19926;-81
2023/06/13 10:59:02;;;;;;;;;;;;;;;33.89;nan;101694.91;4956391;28;19929;-82
2023/06/13 11:01:28;;;;;;;;;;;;;;;34.10;nan;101710.94;4958078;28;20302;-81
2023/06/13 11:04:03;;;;;;;;;;;;;;;34.36;nan;101709.19;4958015;28;20409;-82
2023/06/13 11:06:28;;;;;;;;;;;;;;;34.60;nan;101704.94;4957632;28;19969;-82
2023/06/13 11:09:13;;;;;;;;;;;;;;;34.67;nan;101696.63;4957353;28;19956;-80
2023/06/13 11:11:39;;;;;;;;;;;;;;;34.72;nan;101702.63;4970600;28;19923;-81
2023/06/13 11:14:06;;;;;;;;;;;;;;;34.74;nan;101694.66;4960711;28;20464;-80
2023/06/13 11:16:35;;;;;;;;;;;;;;;34.77;nan;101701.44;4959728;28;19937;-80
2023/06/13 11:19:04;;;;;;;;;;;;;;;34.92;nan;101699.53;4957533;28;19932;-80
2023/06/13 11:21:30;;;;;;;;;;;;;;;35.05;nan;101698.81;4958452;28;19933;-80
2023/06/13 11:23:56;;;;;;;;;;;;;;;35.19;nan;101692.47;4956105;28;20354;-80
2023/06/13 11:26:21;;;;;;;;;;;;;;;35.28;nan;101692.09;4957715;28;19934;-80
2023/06/13 11:28:51;;;;;;;;;;;;;;;35.39;nan;101682.59;4956638;28;19918;-79
2023/06/13 11:31:17;;;;;;;;;;;;;;;35.56;nan;101683.81;4959837;28;20009;-79
2023/06/13 11:33:46;;;;;;;;;;;;;;;35.67;nan;101676.22;4960720;28;19929;-80
2023/06/13 11:36:12;;;;;;;;;;;;;;;35.64;nan;101677.03;4954568;28;19925;-80
2023/06/13 11:38:40;;;;;;;;;;;;;;;35.64;nan;101673.44;4956738;28;19918;-81
2023/06/13 11:41:06;;;;;;;;;;;;;;;35.77;nan;101679.44;4954753;28;20398;-82
2023/06/13 11:43:31;;;;;;;;;;;;;;;35.89;nan;101673.47;4954890;28;19922;-81
2023/06/13 11:46:00;;;;;;;;;;;;;;;35.99;nan;101669.88;4955972;28;19936;-80
2023/06/13 11:48:26;;;;;;;;;;;;;;;36.11;nan;101677.84;4954174;28;19922;-80
2023/06/13 11:50:51;;;;;;;;;;;;;;;36.05;nan;101661.88;4954839;28;19922;-80
2023/06/13 11:53:18;;;;;;;;;;;;;;;35.88;nan;101669.06;4954145;28;20012;-82
2023/06/13 11:55:44;;;;;;;;;;;;;;;35.81;nan;101674.63;4970684;28;20667;-80
2023/06/13 11:58:09;;;;;;;;;;;;;;;35.88;nan;101674.66;4959034;28;20004;-80
2023/06/13 12:00:47;;;;;;;;;;;;;;;36.00;nan;101668.69;4957456;28;20225;-80
2023/06/13 12:03:12;;;;;;;;;;;;;;;36.13;nan;101672.66;4955931;28;20125;-80
2023/06/13 12:05:38;;;;;;;;;;;;;;;36.21;nan;101671.41;4958625;28;20418;-79
2023/06/13 12:08:03;;;;;;;;;;;;;;;36.35;nan;101672.63;4958618;28;20307;-80
2023/06/13 12:10:28;;;;;;;;;;;;;;;36.26;nan;101664.63;4958922;28;20318;-81
2023/06/13 12:12:57;;;;;;;;;;;;;;;36.20;nan;101666.25;4960542;28;19922;-80
2023/06/13 12:15:23;;;;;;;;;;;;;;;36.28;nan;101660.25;4960936;28;19961;-79
2023/06/13 12:18:02;;;;;;;;;;;;;;;36.37;nan;101659.84;4960641;28;19922;-79
2023/06/13 12:20:27;;;;;;;;;;;;;;;36.41;nan;101665.41;4957679;28;20417;-81
2023/06/13 12:22:56;;;;;;;;;;;;;;;36.35;nan;101664.25;4959632;28;20463;-81
2023/06/13 12:25:22;;;;;;;;;;;;;;;36.35;nan;101658.66;4956274;28;19926;-82
2023/06/13 12:27:50;;;;;;;;;;;;;;;36.37;nan;101661.84;4964650;28;20546;-80
2023/06/13 12:30:17;;;;;;;;;;;;;;;36.31;nan;101669.81;4958592;28;20354;-80
2023/06/13 12:32:43;;;;;;;;;;;;;;;36.20;nan;101657.88;4961427;28;20008;-80
2023/06/13 12:35:09;;;;;;;;;;;;;;;36.06;nan;101658.69;4974684;28;20347;-82
2023/06/13 12:37:37;;;;;;;;;;;;;;;35.90;nan;101664.69;4962428;28;19922;-81
2023/06/13 12:40:09;;;;;;;;;;;;;;;35.78;nan;101664.28;4960344;28;19919;-81
2023/06/13 12:42:35;;;;;;;;;;;;;;;35.81;nan;101658.72;4958492;28;19928;-81
2023/06/13 12:45:00;;;;;;;;;;;;;;;35.91;nan;101651.53;4961344;28;19923;-81
2023/06/13 12:47:26;;;;;;;;;;;;;;;36.04;nan;101658.31;4960171;28;19926;-82
2023/06/13 12:49:52;;;;;;;;;;;;;;;36.15;nan;101639.56;4958160;28;19922;-82
2023/06/13 12:52:17;;;;;;;;;;;;;;;36.30;nan;101640.31;4964309;28;20042;-82
2023/06/13 12:54:42;;;;;;;;;;;;;;;36.46;nan;101645.50;4960522;28;19922;-82